Back to top

Big Piney, WY weather

Big Piney-Marbleton Airport (AMOS), Big Piney, WY: 7/22/2019 13:53
Visibility10 statute milesclear sky
View 7-Day Forecast
Area Summary
Sky/CloudsSky Clear
Weather [last 24 hours]None
Pressure30.37 in.Hg (1029 hPa)
Dew Point46.9 °F (8.3 °C)
Relative Humidity25.9 %
Temperature86 °F (30 °C)red thermometer
Reading TimeMinimum to Maximum Temperature
6-hr ending 7/22@11:5348 °F to 78.1 °F (8.9 °C to 25.6 °C)
6-hr ending 7/22@05:5348.9 °F to 60.1 °F (9.4 °C to 15.6 °C)
6-hr ending 7/21@23:5360.1 °F to 84 °F (15.6 °C to 28.9 °C)
6-hr ending 7/21@17:5378.1 °F to 87.1 °F (25.6 °C to 30.6 °C)
24-hr ending 7/22@00:5342.1 °F to 87.1 °F (5.6 °C to 30.6 °C)
Wind6.9 MPH (6 KT) green arrow with no specific direction
Wind FromVariable (VRB Degrees)
Twilight Begins05:28Sunshine Yesterday
Sunrise06:02N/A
Sunset20:52
Twilight Ends21:25
RemarksLTG, DSNT, NE
METARKBPI 221953Z AUTO VRB06KT 10SM CLR 30/08 A3037 RMK AO2 LTG DSNT NE SLP173 T03000083
Tags: